createdAt,value
2022-10-11T10:29:37.210Z,18.76
2022-10-11T10:30:37.601Z,19.08
2022-10-11T10:31:54.973Z,19.14
2022-10-11T10:32:38.512Z,19.40
2022-10-11T10:33:35.646Z,19.90
2022-10-11T10:34:35.658Z,20.43
2022-10-11T10:35:35.802Z,20.79
2022-10-11T10:36:36.516Z,20.68
2022-10-11T10:37:35.998Z,19.97
2022-10-11T10:38:35.849Z,19.60
2022-10-11T10:39:35.896Z,19.73
2022-10-11T10:40:38.595Z,19.70
2022-10-11T10:41:35.986Z,19.25
2022-10-11T10:42:36.017Z,19.23
2022-10-11T10:43:36.199Z,19.35
2022-10-11T10:44:38.971Z,19.32
2022-10-11T10:45:36.182Z,19.20
2022-10-11T10:46:36.242Z,19.61
2022-10-11T10:47:36.490Z,19.35
2022-10-11T10:49:09.049Z,19.11
2022-10-11T10:50:01.080Z,18.83
2022-10-11T10:50:36.975Z,18.61
2022-10-11T10:51:36.675Z,18.67
2022-10-11T10:52:38.482Z,18.57
2022-10-11T10:53:41.539Z,18.50
2022-10-11T10:54:36.672Z,18.49
2022-10-11T10:55:36.729Z,18.97
2022-10-11T10:56:36.778Z,19.46
2022-10-11T10:57:36.860Z,19.80
2022-10-11T10:58:36.893Z,20.21
2022-10-11T10:59:36.952Z,20.50
2022-10-11T11:00:37.050Z,20.87
2022-10-11T11:01:37.090Z,21.06
2022-10-11T11:02:41.255Z,21.17
2022-10-11T11:03:37.165Z,20.42
2022-10-11T11:04:37.213Z,20.02
2022-10-11T11:05:37.332Z,19.65
2022-10-11T11:06:43.169Z,19.29
2022-10-11T11:07:44.016Z,18.86
2022-10-11T11:08:37.428Z,18.83
2022-10-11T11:09:37.484Z,18.90
2022-10-11T11:10:37.570Z,19.39
2022-10-11T11:11:38.504Z,19.79
2022-10-11T11:12:39.290Z,19.35
2022-10-11T11:13:37.730Z,19.08
2022-10-11T11:14:39.864Z,19.13
2022-10-11T11:15:38.322Z,19.15
2022-10-11T11:16:37.867Z,19.10
2022-10-11T11:17:37.922Z,19.14
2022-10-11T11:18:37.975Z,19.33
2022-10-11T11:19:38.062Z,19.51
2022-10-11T11:20:38.809Z,19.65
2022-10-11T11:21:41.567Z,19.70
2022-10-11T11:22:38.207Z,19.68
2022-10-11T11:23:42.400Z,19.72
2022-10-11T11:24:38.354Z,19.69
2022-10-11T11:25:41.407Z,19.55
2022-10-11T11:26:41.980Z,19.76
2022-10-11T11:27:38.526Z,19.86
2022-10-11T11:28:38.598Z,19.79
2022-10-11T11:29:38.622Z,19.75
2022-10-11T11:30:39.644Z,19.72
2022-10-11T11:31:44.738Z,19.75
2022-10-11T11:32:42.259Z,20.00
2022-10-11T11:33:38.825Z,19.65
2022-10-11T11:34:38.893Z,19.50
2022-10-11T11:35:39.526Z,19.55
2022-10-11T11:36:49.725Z,19.32
2022-10-11T11:37:54.101Z,19.24
2022-10-11T11:38:40.001Z,19.48
2022-10-11T11:39:41.036Z,19.87
2022-10-11T11:40:39.308Z,19.87
2022-10-11T11:41:39.303Z,19.79
2022-10-11T11:42:39.354Z,20.33
2022-10-11T11:43:40.009Z,20.80
2022-10-11T11:44:39.567Z,21.45
2022-10-11T11:45:40.014Z,21.88
2022-10-11T11:46:40.594Z,22.34
2022-10-11T11:47:39.701Z,22.68
2022-10-11T11:48:39.726Z,22.90
2022-10-11T11:49:39.762Z,23.08
2022-10-11T11:50:40.519Z,23.02
2022-10-11T11:51:51.780Z,22.12
2022-10-11T11:52:39.911Z,21.11
2022-10-11T11:53:39.984Z,20.69
2022-10-11T11:54:39.993Z,20.34
2022-10-11T11:55:43.015Z,20.34
2022-10-11T11:56:40.110Z,20.05
2022-10-11T11:57:40.273Z,19.80
2022-10-11T11:58:40.365Z,20.00
2022-10-11T11:59:42.056Z,20.35
2022-10-11T12:00:47.065Z,20.59
2022-10-11T12:01:41.075Z,20.71
2022-10-11T12:02:40.514Z,20.64
2022-10-11T12:03:41.737Z,21.09
2022-10-11T12:04:41.575Z,21.67
2022-10-11T12:06:01.836Z,21.29
2022-10-11T12:07:04.186Z,20.66
2022-10-11T12:07:40.858Z,20.05
2022-10-11T12:08:40.853Z,19.87
2022-10-11T12:09:40.952Z,19.93
2022-10-11T12:10:41.587Z,19.95
2022-10-11T12:11:47.571Z,20.02
2022-10-11T12:12:41.089Z,19.79
2022-10-11T12:13:41.126Z,20.33
2022-10-11T12:14:41.277Z,20.54
2022-10-11T12:15:49.176Z,20.33
2022-10-11T12:16:45.001Z,19.86
2022-10-11T12:17:41.417Z,19.98
2022-10-11T12:18:42.872Z,20.15
2022-10-11T12:19:41.545Z,20.61
2022-10-11T12:20:42.080Z,20.56
2022-10-11T12:21:41.593Z,20.28
2022-10-11T12:22:42.583Z,20.38
2022-10-11T12:23:41.767Z,20.93
2022-10-11T12:24:41.720Z,21.38
2022-10-11T12:25:41.800Z,20.98
2022-10-11T12:26:41.828Z,21.06
2022-10-11T12:27:41.890Z,21.11
2022-10-11T12:28:59.768Z,20.87
2022-10-11T12:29:44.252Z,20.33
2022-10-11T12:30:42.110Z,20.16
2022-10-11T12:31:46.080Z,20.43
2022-10-11T12:32:42.216Z,20.39
2022-10-11T12:33:42.287Z,20.87
2022-10-11T12:34:42.395Z,21.11
2022-10-11T12:35:43.104Z,21.61
2022-10-11T12:36:43.160Z,21.83
2022-10-11T12:37:42.503Z,22.28
2022-10-11T12:38:43.076Z,22.28
2022-10-11T12:39:44.881Z,21.59
2022-10-11T12:40:43.598Z,21.45
2022-10-11T12:41:43.563Z,21.36
2022-10-11T12:42:42.773Z,21.26
2022-10-11T12:43:42.843Z,20.86
2022-10-11T12:44:42.919Z,20.54
2022-10-11T12:45:43.059Z,20.27
2022-10-11T12:46:43.712Z,20.06
2022-10-11T12:47:43.074Z,19.98
2022-10-11T12:49:04.158Z,20.00
2022-10-11T12:49:43.187Z,19.86
2022-10-11T12:50:44.077Z,19.94
2022-10-11T12:52:09.684Z,19.70
2022-10-11T12:52:48.167Z,19.72
2022-10-11T12:53:48.158Z,19.65
2022-10-11T12:54:44.794Z,20.06
2022-10-11T12:55:44.098Z,20.33
2022-10-11T12:56:43.568Z,20.66
2022-10-11T12:57:46.767Z,21.04
2022-10-11T12:58:44.566Z,21.39
2022-10-11T12:59:44.000Z,21.71
2022-10-11T13:00:49.111Z,21.95
2022-10-11T13:01:43.852Z,22.22
2022-10-11T13:02:43.858Z,22.28
2022-10-11T13:03:43.950Z,22.43
2022-10-11T13:04:43.983Z,22.89
2022-10-11T13:05:45.475Z,23.26
2022-10-11T13:06:44.085Z,23.70
2022-10-11T13:07:44.140Z,23.83
2022-10-11T13:08:44.225Z,24.10
2022-10-11T13:09:48.977Z,24.10
2022-10-11T13:10:44.312Z,23.98
2022-10-11T13:11:44.370Z,23.77
2022-10-11T13:12:44.432Z,23.61
2022-10-11T13:13:44.544Z,22.77
2022-10-11T13:14:44.548Z,22.41
2022-10-11T13:15:45.061Z,22.41
2022-10-11T13:16:44.668Z,22.53
2022-10-11T13:17:45.564Z,22.65
2022-10-11T13:18:44.854Z,22.78
2022-10-11T13:19:44.941Z,22.64
2022-10-11T13:20:45.568Z,22.39
2022-10-11T13:21:45.563Z,22.35
2022-10-11T13:22:45.020Z,22.52
2022-10-11T13:24:06.133Z,22.38
2022-10-11T13:24:46.070Z,22.37
2022-10-11T13:25:45.232Z,22.68
2022-10-11T13:26:46.068Z,22.89
2022-10-11T13:27:46.069Z,22.86
2022-10-11T13:28:45.431Z,22.77
2022-10-11T13:29:45.436Z,22.92
2022-10-11T13:30:45.519Z,22.80
2022-10-11T13:31:45.572Z,22.86
2022-10-11T13:32:47.332Z,22.31
2022-10-11T13:33:46.573Z,22.10
2022-10-11T13:34:45.781Z,22.07
2022-10-11T13:35:46.074Z,21.94
2022-10-11T13:36:45.903Z,21.76
2022-10-11T13:37:46.177Z,21.57
2022-10-11T13:38:45.956Z,21.35
2022-10-11T13:39:59.087Z,21.24
2022-10-11T13:40:50.140Z,21.04
2022-10-11T13:41:46.163Z,21.01
2022-10-11T13:42:46.613Z,21.11
2022-10-11T13:43:46.231Z,21.20
2022-10-11T13:44:47.120Z,21.27
2022-10-11T13:45:46.691Z,21.50
2022-10-11T13:46:46.454Z,21.94
2022-10-11T13:47:46.510Z,21.94
2022-10-11T13:48:47.123Z,21.95
2022-10-11T13:49:46.621Z,21.76
2022-10-11T13:50:53.112Z,21.64
2022-10-11T13:51:47.454Z,21.48
2022-10-11T13:52:46.778Z,21.36
2022-10-11T13:53:46.860Z,21.29
2022-10-11T13:54:46.872Z,21.20
2022-10-11T13:55:46.948Z,21.24
2022-10-11T13:56:47.528Z,21.36
2022-10-11T13:57:47.117Z,21.23
2022-10-11T13:59:01.679Z,21.05
2022-10-11T13:59:50.128Z,21.02
2022-10-11T14:00:47.374Z,20.96
2022-10-11T14:01:47.266Z,21.17
2022-10-11T14:02:48.128Z,21.26
2022-10-11T14:03:48.590Z,21.16
2022-10-11T14:04:47.415Z,21.19
2022-10-11T14:05:47.505Z,21.21
2022-10-11T14:06:47.527Z,21.24
2022-10-11T14:07:47.574Z,21.38
2022-10-11T14:08:49.874Z,21.38
2022-10-11T14:09:47.734Z,21.08
2022-10-11T14:10:47.762Z,21.01
2022-10-11T14:11:48.205Z,20.84
2022-10-11T14:12:49.630Z,20.81
2022-10-11T14:13:48.636Z,20.72
2022-10-11T14:14:47.967Z,20.80
2022-10-11T14:15:48.036Z,20.76
2022-10-11T14:16:48.081Z,20.87
2022-10-11T14:17:50.719Z,20.93
2022-10-11T14:18:48.215Z,20.95
2022-10-11T14:19:48.262Z,20.95
2022-10-11T14:21:03.268Z,20.90
2022-10-11T14:21:48.372Z,20.77
2022-10-11T14:23:03.125Z,20.80
